Time;durP1;ratioP1;P1;durP2;ratioP2;P2;SDS_P1;SDS_P2;PMS_P1;PMS_P2;Temp;Humidity;BMP_temperature;BMP_pressure;BME280_temperature;BME280_humidity;BME280_pressure;Samples;Min_cycle;Max_cycle;Signal;HPM_P1;HPM_P2
2021/04/25 00:01:39;;;;;;;8.43;4.50;;;8.20;73.90;;;;;;5054526;28;20442;-77
2021/04/25 00:04:09;;;;;;;5.20;3.87;;;8.10;75.00;;;;;;5054442;28;20445;-77
2021/04/25 00:06:36;;;;;;;6.93;3.73;;;8.10;74.90;;;;;;5054402;28;20473;-77
2021/04/25 00:09:03;;;;;;;6.83;3.93;;;8.10;75.30;;;;;;5054441;28;20449;-77
2021/04/25 00:11:29;;;;;;;7.43;4.00;;;8.10;76.40;;;;;;5054398;28;20448;-77
2021/04/25 00:13:56;;;;;;;4.37;3.57;;;8.10;76.00;;;;;;5054346;28;20450;-77
2021/04/25 00:16:23;;;;;;;6.40;3.80;;;8.10;76.20;;;;;;5054248;28;20968;-77
2021/04/25 00:18:49;;;;;;;6.40;3.70;;;8.10;75.70;;;;;;5054223;28;20450;-77
2021/04/25 00:21:17;;;;;;;6.40;3.80;;;8.10;77.60;;;;;;5054157;28;20468;-77
2021/04/25 00:23:44;;;;;;;4.60;3.60;;;8.10;76.90;;;;;;5054147;28;20445;-77
2021/04/25 00:26:10;;;;;;;6.20;3.80;;;8.10;76.80;;;;;;5053985;28;20489;-77
2021/04/25 00:28:37;;;;;;;4.77;3.60;;;8.10;76.00;;;;;;5054071;28;20810;-77
2021/04/25 00:31:03;;;;;;;7.27;3.77;;;8.10;77.10;;;;;;5053979;28;20454;-77
2021/04/25 00:33:29;;;;;;;7.27;3.53;;;8.00;77.20;;;;;;5054046;28;20500;-77
2021/04/25 00:35:56;;;;;;;7.70;3.90;;;8.10;77.90;;;;;;5053878;28;20527;-77
2021/04/25 00:38:22;;;;;;;5.53;3.37;;;8.10;78.40;;;;;;5053903;28;20503;-77
2021/04/25 00:40:49;;;;;;;5.97;3.50;;;8.00;77.50;;;;;;5053568;28;20518;-77
2021/04/25 00:43:16;;;;;;;5.97;3.17;;;8.00;77.90;;;;;;5053389;28;20453;-77
2021/04/25 00:45:42;;;;;;;4.97;3.60;;;8.00;78.90;;;;;;5053299;28;20485;-76
2021/04/25 00:48:08;;;;;;;5.63;3.23;;;7.90;78.70;;;;;;5053730;28;20454;-77
2021/04/25 00:50:34;;;;;;;4.47;3.70;;;7.90;79.60;;;;;;5053228;28;20535;-77
2021/04/25 00:53:01;;;;;;;4.00;3.27;;;7.90;80.90;;;;;;5053640;28;20449;-77
2021/04/25 00:55:29;;;;;;;4.17;3.27;;;7.90;80.10;;;;;;5053523;28;20453;-76
2021/04/25 00:57:58;;;;;;;8.17;4.13;;;7.90;80.70;;;;;;5053570;28;20458;-77
2021/04/25 01:00:26;;;;;;;3.80;2.97;;;7.90;81.40;;;;;;5053533;28;20449;-77
2021/04/25 01:02:52;;;;;;;7.17;3.30;;;7.80;81.90;;;;;;5053543;28;20445;-77
2021/04/25 01:05:21;;;;;;;5.23;3.70;;;7.80;82.40;;;;;;5053318;28;20488;-77
2021/04/25 01:07:48;;;;;;;4.80;3.00;;;7.70;83.10;;;;;;5053452;28;20446;-77
2021/04/25 01:10:15;;;;;;;8.67;3.80;;;7.70;83.00;;;;;;5053387;28;20458;-77
2021/04/25 01:12:43;;;;;;;11.53;4.10;;;7.80;81.80;;;;;;5053385;28;20784;-77
2021/04/25 01:15:12;;;;;;;5.73;3.60;;;7.70;83.00;;;;;;5053297;28;20452;-77
2021/04/25 01:17:40;;;;;;;5.70;3.60;;;7.80;83.90;;;;;;5053347;28;20442;-77
2021/04/25 01:20:08;;;;;;;4.20;3.13;;;7.70;83.80;;;;;;5053294;28;20511;-77
2021/04/25 01:22:35;;;;;;;5.33;3.00;;;7.70;83.50;;;;;;5053249;28;20445;-77
2021/04/25 01:25:02;;;;;;;6.87;3.70;;;7.70;83.10;;;;;;5053150;28;20518;-76
2021/04/25 01:27:28;;;;;;;5.67;3.27;;;7.70;83.70;;;;;;5053157;28;20469;-77
2021/04/25 01:29:54;;;;;;;8.10;3.87;;;7.60;83.90;;;;;;5053194;28;20454;-77
2021/04/25 01:32:20;;;;;;;6.30;3.93;;;7.60;85.00;;;;;;5053169;28;20458;-77
2021/04/25 01:34:47;;;;;;;5.53;3.30;;;7.60;86.60;;;;;;5053189;28;20445;-77
2021/04/25 01:37:13;;;;;;;5.67;3.80;;;7.60;85.30;;;;;;5052726;28;20470;-77
2021/04/25 01:39:40;;;;;;;6.13;4.50;;;7.60;86.00;;;;;;5052967;28;20464;-77
2021/04/25 01:42:06;;;;;;;12.17;4.07;;;7.50;87.20;;;;;;5052759;28;20801;-77
2021/04/25 01:44:33;;;;;;;6.70;3.90;;;7.50;88.40;;;;;;5052967;28;20581;-77
2021/04/25 01:46:59;;;;;;;6.03;4.10;;;7.40;89.40;;;;;;5052936;28;20476;-77
2021/04/25 01:49:25;;;;;;;4.00;3.60;;;7.40;89.60;;;;;;5052779;28;20504;-77
2021/04/25 01:51:52;;;;;;;7.50;4.00;;;7.30;90.30;;;;;;5052901;28;20473;-77
2021/04/25 01:54:18;;;;;;;4.30;3.70;;;7.30;90.40;;;;;;5056311;28;20472;-77
2021/04/25 01:56:45;;;;;;;6.03;4.10;;;7.20;91.10;;;;;;5056569;28;20976;-77
2021/04/25 01:59:11;;;;;;;6.40;3.90;;;7.10;91.10;;;;;;5056837;28;20456;-77
2021/04/25 02:01:37;;;;;;;7.47;3.93;;;7.10;91.90;;;;;;5056831;28;20457;-77
2021/04/25 02:04:04;;;;;;;5.57;3.40;;;7.00;92.30;;;;;;5056766;28;20452;-77
2021/04/25 02:06:30;;;;;;;7.43;4.10;;;6.90;93.30;;;;;;5056685;28;20465;-77
2021/04/25 02:08:56;;;;;;;4.83;3.40;;;6.90;93.70;;;;;;5056436;28;20463;-77
2021/04/25 02:11:23;;;;;;;7.13;3.90;;;6.80;93.50;;;;;;5056680;28;20449;-77
2021/04/25 02:13:50;;;;;;;5.37;3.40;;;6.80;93.70;;;;;;5056621;28;20457;-77
2021/04/25 02:16:16;;;;;;;6.60;3.93;;;6.70;94.30;;;;;;5056489;28;20515;-76
2021/04/25 02:18:43;;;;;;;6.20;4.37;;;6.60;94.30;;;;;;5056537;28;20453;-77
2021/04/25 02:21:10;;;;;;;6.53;3.50;;;6.60;95.20;;;;;;5056461;28;20457;-77
2021/04/25 02:23:36;;;;;;;6.77;3.70;;;6.60;95.10;;;;;;5056446;28;20450;-77
2021/04/25 02:26:02;;;;;;;7.40;3.93;;;6.60;95.60;;;;;;5056244;28;20501;-77
2021/04/25 02:28:28;;;;;;;8.33;3.83;;;6.60;95.90;;;;;;5056070;28;20457;-77
2021/04/25 02:30:56;;;;;;;7.17;4.10;;;6.50;96.10;;;;;;5056279;28;20437;-77
2021/04/25 02:33:22;;;;;;;4.00;3.27;;;6.50;97.20;;;;;;5056290;28;20468;-77
2021/04/25 02:35:48;;;;;;;5.70;4.00;;;6.50;96.80;;;;;;5056176;28;20458;-77
2021/04/25 02:38:15;;;;;;;6.03;3.67;;;6.50;97.50;;;;;;5056203;28;20453;-77
2021/04/25 02:40:41;;;;;;;5.20;4.00;;;6.50;97.60;;;;;;5056166;28;20452;-77
2021/04/25 02:43:07;;;;;;;6.90;3.83;;;6.50;98.60;;;;;;5056123;28;20449;-77
2021/04/25 02:45:34;;;;;;;5.30;3.37;;;6.50;98.90;;;;;;5055943;28;20535;-77
2021/04/25 02:48:03;;;;;;;5.13;4.03;;;6.50;99.30;;;;;;5056005;28;20442;-77
2021/04/25 02:50:31;;;;;;;4.70;3.47;;;6.50;98.80;;;;;;5055489;28;20482;-77
2021/04/25 02:52:58;;;;;;;5.40;4.23;;;6.50;98.90;;;;;;5055883;28;20512;-77
2021/04/25 02:55:25;;;;;;;4.83;3.60;;;6.60;99.40;;;;;;5055794;28;20450;-77
2021/04/25 02:57:51;;;;;;;5.50;3.70;;;6.50;99.40;;;;;;5055823;28;20441;-76
2021/04/25 03:00:20;;;;;;;7.40;3.67;;;6.50;99.90;;;;;;5055466;28;20457;-77
2021/04/25 03:02:46;;;;;;;5.43;3.70;;;6.50;99.60;;;;;;5055710;28;20456;-77
2021/04/25 03:05:14;;;;;;;6.23;3.90;;;6.50;99.90;;;;;;5054707;28;20486;-77
2021/04/25 03:07:40;;;;;;;5.87;3.50;;;6.40;99.90;;;;;;5055585;28;20453;-77
2021/04/25 03:10:08;;;;;;;5.50;3.67;;;6.40;99.90;;;;;;5055630;28;20453;-77
2021/04/25 03:12:35;;;;;;;6.43;4.20;;;6.40;99.90;;;;;;5055516;28;20445;-76
2021/04/25 03:15:01;;;;;;;8.23;4.37;;;6.40;99.90;;;;;;5055503;28;20441;-77
2021/04/25 03:17:28;;;;;;;5.97;3.83;;;6.40;99.90;;;;;;5055365;28;20465;-77
2021/04/25 03:19:54;;;;;;;5.93;3.60;;;6.30;99.90;;;;;;5055382;28;20495;-77
2021/04/25 03:22:21;;;;;;;6.13;4.33;;;6.40;99.90;;;;;;5055024;28;20874;-77
2021/04/25 03:24:47;;;;;;;13.63;4.50;;;6.40;99.90;;;;;;5055253;28;20478;-77
2021/04/25 03:27:14;;;;;;;6.40;4.20;;;6.40;99.90;;;;;;5055218;28;20462;-77
2021/04/25 03:29:40;;;;;;;5.80;3.93;;;6.30;99.90;;;;;;5054973;28;20491;-77
2021/04/25 03:32:07;;;;;;;5.43;3.90;;;6.30;99.90;;;;;;5055133;28;20504;-77
2021/04/25 03:34:33;;;;;;;7.30;3.60;;;6.30;99.90;;;;;;5054826;28;20449;-77
2021/04/25 03:36:59;;;;;;;5.90;4.03;;;6.20;99.90;;;;;;5054695;28;20469;-77
2021/04/25 03:39:27;;;;;;;6.10;3.83;;;6.20;99.90;;;;;;5054997;28;20465;-77
2021/04/25 03:41:53;;;;;;;5.43;3.50;;;6.20;99.90;;;;;;5055012;28;20448;-76
2021/04/25 03:44:19;;;;;;;5.97;3.80;;;6.20;99.90;;;;;;5054853;28;20454;-77
2021/04/25 03:46:45;;;;;;;5.97;3.80;;;6.10;99.90;;;;;;5054834;28;20477;-77
2021/04/25 03:49:12;;;;;;;6.00;3.70;;;6.10;99.90;;;;;;5054499;28;20481;-77
2021/04/25 03:51:38;;;;;;;9.90;4.23;;;6.00;99.90;;;;;;5054532;28;20438;-77
2021/04/25 03:54:05;;;;;;;5.47;4.23;;;5.90;99.90;;;;;;5054749;28;20461;-77
2021/04/25 03:56:32;;;;;;;9.00;4.30;;;5.90;99.90;;;;;;5054641;28;20462;-77
2021/04/25 03:59:00;;;;;;;5.50;3.97;;;5.90;99.90;;;;;;5054356;28;21025;-77
2021/04/25 04:01:27;;;;;;;6.83;4.20;;;5.90;99.90;;;;;;5054573;28;20458;-77
2021/04/25 04:03:53;;;;;;;5.60;3.50;;;5.80;99.90;;;;;;5054587;28;20457;-77
2021/04/25 04:06:19;;;;;;;5.43;3.50;;;5.90;99.90;;;;;;5054351;28;20860;-77
2021/04/25 04:08:45;;;;;;;4.00;3.30;;;5.90;99.90;;;;;;5054488;28;20423;-77
2021/04/25 04:11:11;;;;;;;5.20;3.80;;;5.90;99.90;;;;;;5054397;28;20446;-77
2021/04/25 04:13:39;;;;;;;4.93;3.50;;;5.80;99.90;;;;;;5054398;28;20456;-76
2021/04/25 04:16:05;;;;;;;5.77;3.77;;;5.80;99.90;;;;;;5053456;28;20458;-77
2021/04/25 04:18:31;;;;;;;9.57;4.77;;;5.80;99.90;;;;;;5054020;28;20453;-77
2021/04/25 04:20:57;;;;;;;6.00;3.93;;;5.80;99.90;;;;;;5054228;28;20453;-77
2021/04/25 04:23:24;;;;;;;5.83;3.27;;;5.70;99.90;;;;;;5054181;28;20476;-77
2021/04/25 04:25:50;;;;;;;6.27;4.03;;;5.70;99.90;;;;;;5053761;28;20485;-77
2021/04/25 04:28:16;;;;;;;5.30;3.40;;;5.60;99.90;;;;;;5054117;28;20456;-77
2021/04/25 04:30:43;;;;;;;6.40;4.63;;;5.60;99.90;;;;;;5054056;28;20449;-77
2021/04/25 04:33:10;;;;;;;9.20;4.50;;;5.60;99.90;;;;;;5054010;28;20454;-77
2021/04/25 04:35:37;;;;;;;4.90;3.50;;;5.60;99.90;;;;;;5053944;28;20461;-77
2021/04/25 04:38:03;;;;;;;6.47;3.90;;;5.60;99.90;;;;;;5053902;28;20507;-77
2021/04/25 04:40:29;;;;;;;5.30;3.80;;;5.60;99.90;;;;;;5053545;28;20457;-76
2021/04/25 04:42:56;;;;;;;5.73;3.77;;;5.70;99.90;;;;;;5053872;28;20446;-77
2021/04/25 04:45:22;;;;;;;8.83;4.67;;;5.70;99.90;;;;;;5053553;28;20473;-77
2021/04/25 04:47:49;;;;;;;9.20;5.33;;;5.70;99.90;;;;;;5053416;28;20450;-77
2021/04/25 04:50:17;;;;;;;8.83;4.73;;;5.70;99.90;;;;;;5053422;28;20473;-77
2021/04/25 04:52:45;;;;;;;8.93;4.67;;;5.70;99.90;;;;;;5053651;28;20457;-77
2021/04/25 04:55:12;;;;;;;5.67;3.43;;;5.80;99.90;;;;;;5053537;28;20442;-77
2021/04/25 04:57:38;;;;;;;5.63;4.07;;;5.80;99.90;;;;;;5053615;28;20442;-77
2021/04/25 05:00:06;;;;;;;8.47;4.50;;;5.80;99.90;;;;;;5053528;28;20449;-77
2021/04/25 05:02:32;;;;;;;7.33;4.47;;;5.90;99.90;;;;;;5053533;28;20450;-77
2021/04/25 05:05:00;;;;;;;7.87;4.43;;;6.00;99.90;;;;;;5053379;28;20525;-77
2021/04/25 05:07:26;;;;;;;4.57;3.83;;;6.00;99.90;;;;;;5053403;28;20462;-77
2021/04/25 05:09:52;;;;;;;5.73;3.90;;;6.00;99.90;;;;;;5053129;28;20453;-77
2021/04/25 05:12:18;;;;;;;6.43;4.80;;;6.10;99.90;;;;;;5053423;28;20446;-77
2021/04/25 05:14:44;;;;;;;9.33;4.60;;;6.00;99.90;;;;;;5053369;28;20446;-77
2021/04/25 05:17:11;;;;;;;6.37;3.77;;;6.10;99.90;;;;;;5053291;28;20480;-77
2021/04/25 05:19:37;;;;;;;8.63;4.37;;;6.20;99.90;;;;;;5053303;28;20450;-77
2021/04/25 05:22:05;;;;;;;7.10;4.00;;;6.20;99.90;;;;;;5053294;28;20450;-77
2021/04/25 05:24:31;;;;;;;6.60;4.07;;;6.30;99.90;;;;;;5052850;28;20503;-77
2021/04/25 05:26:58;;;;;;;10.13;3.67;;;6.40;99.90;;;;;;5053128;28;20470;-77
2021/04/25 05:29:24;;;;;;;7.67;4.97;;;6.40;99.90;;;;;;5052659;28;20483;-76
2021/04/25 05:31:50;;;;;;;6.47;3.80;;;6.60;99.90;;;;;;5053182;28;20441;-77
2021/04/25 05:34:16;;;;;;;7.13;4.90;;;6.60;99.90;;;;;;5053178;28;20450;-76
2021/04/25 05:36:43;;;;;;;5.93;4.37;;;6.70;99.90;;;;;;5053075;28;20465;-77
2021/04/25 05:39:10;;;;;;;12.33;5.43;;;6.80;99.90;;;;;;5053166;28;20446;-77
2021/04/25 05:41:37;;;;;;;7.63;4.60;;;6.90;99.90;;;;;;5053097;28;20456;-77
2021/04/25 05:44:04;;;;;;;10.30;5.37;;;6.90;99.90;;;;;;5053082;28;20456;-77
2021/04/25 05:46:30;;;;;;;8.33;5.13;;;7.00;99.90;;;;;;5052803;28;20606;-77
2021/04/25 05:48:56;;;;;;;7.60;4.63;;;7.20;99.90;;;;;;5052825;28;20481;-77
2021/04/25 05:51:22;;;;;;;5.63;4.60;;;7.40;99.90;;;;;;5052960;28;20449;-77
2021/04/25 05:53:49;;;;;;;8.17;5.00;;;7.60;99.90;;;;;;5052706;28;20865;-77
2021/04/25 05:56:16;;;;;;;7.17;5.13;;;7.80;99.90;;;;;;5052907;28;20454;-77
2021/04/25 05:58:42;;;;;;;6.23;4.33;;;8.10;99.90;;;;;;5052627;28;20446;-76
2021/04/25 06:01:08;;;;;;;8.60;5.23;;;8.40;99.90;;;;;;5052856;28;20446;-77
2021/04/25 06:03:34;;;;;;;8.63;4.97;;;8.80;99.90;;;;;;5052824;28;20452;-77
2021/04/25 06:06:01;;;;;;;6.33;4.50;;;9.20;99.40;;;;;;5052669;28;20485;-77
2021/04/25 06:08:27;;;;;;;8.30;4.70;;;9.50;98.20;;;;;;5052873;28;20446;-77
2021/04/25 06:10:53;;;;;;;6.60;4.20;;;9.90;97.00;;;;;;5052861;28;20784;-77
2021/04/25 06:13:20;;;;;;;10.03;4.67;;;10.10;95.40;;;;;;5052787;28;20453;-77
2021/04/25 06:15:46;;;;;;;9.20;5.00;;;10.40;95.00;;;;;;5052693;28;20477;-77
2021/04/25 06:18:12;;;;;;;6.97;4.40;;;10.60;93.90;;;;;;5052745;28;20457;-77
2021/04/25 06:20:39;;;;;;;7.10;4.70;;;10.70;93.40;;;;;;5052336;28;20879;-77
2021/04/25 06:23:05;;;;;;;6.60;4.60;;;10.80;92.50;;;;;;5052715;28;20449;-77
2021/04/25 06:25:31;;;;;;;7.93;5.00;;;11.00;92.00;;;;;;5052187;28;20493;-77
2021/04/25 06:27:58;;;;;;;8.27;4.47;;;11.30;91.10;;;;;;5052640;28;20445;-77
2021/04/25 06:30:25;;;;;;;6.37;4.93;;;11.40;90.40;;;;;;5052622;28;20446;-77
2021/04/25 06:32:52;;;;;;;8.40;4.83;;;12.00;88.80;;;;;;5052323;28;20446;-77
2021/04/25 06:35:18;;;;;;;6.13;5.30;;;12.60;85.10;;;;;;5052212;28;20476;-77
2021/04/25 06:37:46;;;;;;;7.10;4.77;;;13.00;82.70;;;;;;5052392;28;20468;-77
2021/04/25 06:40:14;;;;;;;7.97;5.57;;;13.80;79.70;;;;;;5053916;28;20446;-77
2021/04/25 06:42:41;;;;;;;6.10;4.80;;;14.40;77.30;;;;;;5056087;28;20453;-77
2021/04/25 06:45:10;;;;;;;6.73;4.50;;;15.40;72.40;;;;;;5055742;28;20479;-77
2021/04/25 06:47:37;;;;;;;6.67;4.90;;;15.90;67.70;;;;;;5056016;28;20498;-77
2021/04/25 06:50:07;;;;;;;11.23;5.30;;;16.60;64.50;;;;;;5055542;28;20493;-77
2021/04/25 06:52:33;;;;;;;6.50;5.27;;;17.40;61.60;;;;;;5055912;28;20450;-77
2021/04/25 06:55:00;;;;;;;7.07;5.57;;;18.10;57.90;;;;;;5055886;28;20445;-77
2021/04/25 06:57:27;;;;;;;8.10;5.73;;;19.00;56.20;;;;;;5055737;28;20477;-77
2021/04/25 06:59:54;;;;;;;6.93;5.27;;;19.90;53.00;;;;;;5055848;28;20515;-77
2021/04/25 07:02:20;;;;;;;7.77;5.97;;;20.50;50.90;;;;;;5055475;28;20993;-77
2021/04/25 07:04:47;;;;;;;7.13;6.20;;;21.40;49.00;;;;;;5055590;28;20936;-77
2021/04/25 07:07:14;;;;;;;7.93;5.95;;;22.00;47.90;;;;;;5055633;28;20227;-77
2021/04/25 07:09:40;;;;;;;6.20;5.60;;;22.00;46.80;;;;;;5055659;28;20201;-78
2021/04/25 07:12:08;;;;;;;5.53;5.05;;;22.20;46.90;;;;;;5055639;28;20183;-77
2021/04/25 07:14:34;;;;;;;6.30;5.70;;;21.90;45.30;;;;;;5055592;28;20187;-78
2021/04/25 07:17:00;;;;;;;6.00;5.45;;;22.20;45.60;;;;;;5055194;28;20233;-77
2021/04/25 07:19:27;;;;;;;5.75;5.28;;;23.10;43.20;;;;;;5055483;28;20198;-78
2021/04/25 07:21:54;;;;;;;8.35;5.85;;;23.10;43.00;;;;;;5055158;28;20643;-78
2021/04/25 07:24:20;;;;;;;7.53;5.90;;;24.20;42.00;;;;;;5055057;28;20606;-78
2021/04/25 07:26:46;;;;;;;10.30;6.65;;;25.00;40.50;;;;;;5055173;28;20233;-78
2021/04/25 07:29:14;;;;;;;8.13;6.35;;;26.00;38.20;;;;;;5055241;28;20262;-78
2021/04/25 07:31:40;;;;;;;6.05;5.45;;;26.50;37.40;;;;;;5055189;28;20188;-78
2021/04/25 07:34:07;;;;;;;6.13;5.53;;;26.90;36.80;;;;;;5055117;28;20209;-78
2021/04/25 07:36:33;;;;;;;6.90;6.20;;;27.00;36.00;;;;;;5055040;28;20235;-78
2021/04/25 07:39:00;;;;;;;6.03;5.45;;;27.10;35.50;;;;;;5054724;28;20208;-78
2021/04/25 07:41:26;;;;;;;7.00;6.38;;;27.50;34.80;;;;;;5054702;28;20205;-78
2021/04/25 07:43:52;;;;;;;8.07;6.43;;;27.50;34.90;;;;;;5054999;28;20209;-78
2021/04/25 07:46:19;;;;;;;7.47;6.78;;;28.00;34.40;;;;;;5054764;28;20236;-78
2021/04/25 07:48:45;;;;;;;6.20;5.60;;;28.30;33.50;;;;;;5054368;28;20621;-77
2021/04/25 07:51:12;;;;;;;6.28;5.78;;;28.20;33.20;;;;;;5054587;28;20243;-77
2021/04/25 07:53:39;;;;;;;7.25;6.55;;;28.80;32.40;;;;;;5054814;28;20216;-78
2021/04/25 07:56:07;;;;;;;7.65;7.05;;;29.60;31.00;;;;;;5054371;28;20229;-78
2021/04/25 07:58:33;;;;;;;7.60;6.85;;;29.50;30.90;;;;;;5054692;28;20207;-78
2021/04/25 08:00:59;;;;;;;9.00;7.35;;;30.20;30.20;;;;;;5054623;28;20208;-78
2021/04/25 08:03:27;;;;;;;7.72;6.68;;;30.50;30.00;;;;;;5054652;28;20216;-78
2021/04/25 08:05:53;;;;;;;6.60;5.95;;;31.20;29.30;;;;;;5054294;28;20282;-78
2021/04/25 08:08:19;;;;;;;7.15;6.55;;;31.60;28.80;;;;;;5054515;28;20214;-78
2021/04/25 08:10:46;;;;;;;7.70;6.90;;;31.90;28.30;;;;;;5054190;28;20672;-78
2021/04/25 08:13:13;;;;;;;8.40;7.45;;;32.30;28.20;;;;;;5054456;28;20208;-77
2021/04/25 08:15:39;;;;;;;8.20;7.40;;;32.50;27.60;;;;;;5054061;28;20225;-78
2021/04/25 08:18:05;;;;;;;6.97;6.38;;;32.80;27.40;;;;;;5054344;28;20219;-78
2021/04/25 08:20:32;;;;;;;7.00;6.40;;;32.90;27.00;;;;;;5054290;28;20293;-78
2021/04/25 08:22:58;;;;;;;7.50;6.75;;;32.50;27.20;;;;;;5053877;28;20208;-77
2021/04/25 08:25:24;;;;;;;7.57;6.97;;;33.10;27.10;;;;;;5054043;28;20232;-78
2021/04/25 08:27:50;;;;;;;8.48;7.78;;;33.20;27.20;;;;;;5054131;28;20217;-77
2021/04/25 08:30:19;;;;;;;7.88;7.03;;;33.00;26.00;;;;;;5054013;28;20205;-77
2021/04/25 08:32:45;;;;;;;8.27;7.45;;;32.50;26.40;;;;;;5054019;28;20207;-77
2021/04/25 08:35:11;;;;;;;7.28;6.68;;;32.10;27.10;;;;;;5053942;28;20229;-77
2021/04/25 08:37:38;;;;;;;9.10;8.20;;;31.80;27.20;;;;;;5053919;28;20205;-77
2021/04/25 08:40:05;;;;;;;8.43;7.63;;;31.70;27.10;;;;;;5053915;28;20236;-78
2021/04/25 08:42:32;;;;;;;9.43;7.68;;;30.80;27.50;;;;;;5053818;28;20205;-77
2021/04/25 08:45:00;;;;;;;7.80;7.00;;;30.00;28.40;;;;;;5053783;28;20200;-78
2021/04/25 08:47:29;;;;;;;9.07;7.22;;;29.40;28.70;;;;;;5053745;28;20591;-77
2021/04/25 08:49:58;;;;;;;7.88;7.13;;;28.70;29.30;;;;;;5053276;28;20779;-77
2021/04/25 08:52:25;;;;;;;7.80;7.10;;;28.00;29.40;;;;;;5053395;28;20578;-77
2021/04/25 08:54:52;;;;;;;8.70;7.45;;;27.30;30.00;;;;;;5053594;28;20233;-77
2021/04/25 08:57:19;;;;;;;8.48;7.57;;;26.80;31.00;;;;;;5053263;28;20219;-77
2021/04/25 08:59:45;;;;;;;10.90;7.25;;;26.60;31.70;;;;;;5053282;28;20608;-77
2021/04/25 09:02:12;;;;;;;8.60;7.15;;;26.40;31.20;;;;;;5053015;28;20207;-77
2021/04/25 09:04:39;;;;;;;8.25;7.45;;;26.20;31.70;;;;;;5053328;28;20224;-77
2021/04/25 09:07:06;;;;;;;7.85;7.10;;;26.00;31.40;;;;;;5053004;28;20233;-78
2021/04/25 09:09:43;;;;;;;9.02;8.13;;;26.20;32.80;;;;;;5053489;28;20201;-77
2021/04/25 09:12:10;;;;;;;6.80;6.10;;;26.70;31.80;;;;;;5053394;28;20209;-78
2021/04/25 09:14:38;;;;;;;6.93;6.22;;;27.40;31.10;;;;;;5053320;28;20293;-80
2021/04/25 09:17:06;;;;;;;7.07;6.43;;;28.10;30.00;;;;;;5052940;28;20275;-79
2021/04/25 09:19:49;;;;;;;7.25;6.55;;;28.00;29.80;;;;;;5053308;28;20212;-78
2021/04/25 09:22:17;;;;;;;8.00;7.20;;;27.00;30.90;;;;;;5053330;28;20195;-77
2021/04/25 09:24:43;;;;;;;8.18;6.78;;;26.10;32.50;;;;;;5053283;28;20229;-77
2021/04/25 09:27:10;;;;;;;9.10;7.18;;;26.10;32.10;;;;;;5053161;28;20313;-77
2021/04/25 09:29:50;;;;;;;12.27;7.57;;;26.10;32.40;;;;;;5052919;28;20547;-77
2021/04/25 09:32:18;;;;;;;7.85;6.93;;;26.40;33.40;;;;;;5053008;28;20194;-77
2021/04/25 09:34:44;;;;;;;8.52;7.57;;;26.70;32.70;;;;;;5053231;28;20252;-77
2021/04/25 09:37:16;;;;;;;6.97;6.32;;;26.70;32.10;;;;;;5053064;28;20222;-77
2021/04/25 09:40:02;;;;;;;8.80;7.53;;;26.70;31.10;;;;;;5053144;28;20213;-77
2021/04/25 09:42:28;;;;;;;8.10;7.00;;;26.60;32.90;;;;;;5052915;28;20209;-77
2021/04/25 09:44:55;;;;;;;7.82;7.05;;;26.50;32.50;;;;;;5052966;28;20213;-77
2021/04/25 09:47:30;;;;;;;8.02;7.22;;;26.70;32.50;;;;;;5052664;28;20256;-77
2021/04/25 09:49:56;;;;;;;7.70;6.72;;;26.70;31.80;;;;;;5052657;28;20238;-77
2021/04/25 09:52:37;;;;;;;8.45;6.80;;;26.20;32.00;;;;;;5053064;28;20207;-77
2021/04/25 09:55:32;;;;;;;7.20;6.47;;;26.10;34.20;;;;;;5053285;28;20206;-77
2021/04/25 09:58:04;;;;;;;12.07;7.88;;;26.00;33.00;;;;;;5018005;28;20210;-78
2021/04/25 10:00:38;;;;;;;7.47;6.82;;;25.90;32.10;;;;;;5052985;28;20595;-77
2021/04/25 10:03:09;;;;;;;8.05;7.10;;;25.60;32.80;;;;;;5053001;28;20190;-76
2021/04/25 10:05:36;;;;;;;8.98;7.75;;;25.00;33.80;;;;;;5052780;28;20233;-76
2021/04/25 10:08:03;;;;;;;7.28;6.57;;;24.90;33.70;;;;;;5052544;28;20708;-77
2021/04/25 10:10:30;;;;;;;10.18;6.70;;;25.20;33.10;;;;;;5052537;28;20210;-76
2021/04/25 10:12:57;;;;;;;7.18;6.47;;;25.60;32.20;;;;;;5052571;28;20221;-76
2021/04/25 10:15:24;;;;;;;8.10;7.20;;;25.70;32.40;;;;;;5056016;28;20206;-76
2021/04/25 10:17:54;;;;;;;7.50;6.75;;;25.60;32.60;;;;;;5056327;28;20214;-76
2021/04/25 10:20:21;;;;;;;8.32;7.07;;;25.20;32.30;;;;;;5056270;28;20285;-76
2021/04/25 10:22:50;;;;;;;9.05;7.53;;;24.90;33.30;;;;;;5056523;28;20558;-76
2021/04/25 10:25:19;;;;;;;10.13;7.35;;;24.80;33.40;;;;;;5056303;28;20222;-76
2021/04/25 10:27:57;;;;;;;9.75;7.35;;;24.70;33.60;;;;;;5056408;28;20217;-77
2021/04/25 10:30:31;;;;;;;9.07;7.22;;;24.70;34.00;;;;;;5056395;28;20190;-76
2021/04/25 10:32:58;;;;;;;9.57;6.72;;;24.70;33.00;;;;;;5056375;28;20195;-76
2021/04/25 10:35:25;;;;;;;8.57;7.68;;;25.90;32.70;;;;;;5055933;28;20203;-77
2021/04/25 10:37:52;;;;;;;7.93;7.22;;;27.00;31.10;;;;;;5056282;28;20213;-77
2021/04/25 10:40:27;;;;;;;8.27;6.57;;;27.20;30.80;;;;;;5056232;28;20203;-77
2021/04/25 10:43:07;;;;;;;7.88;7.03;;;27.60;31.40;;;;;;5056206;28;20191;-77
2021/04/25 10:45:54;;;;;;;7.70;6.93;;;28.30;29.20;;;;;;5056132;28;20357;-77
2021/04/25 10:48:26;;;;;;;7.32;6.68;;;28.90;29.10;;;;;;5056080;28;20193;-77
2021/04/25 10:50:54;;;;;;;7.03;6.32;;;29.80;29.10;;;;;;5055529;28;20593;-77
2021/04/25 10:53:25;;;;;;;7.43;6.03;;;30.60;27.00;;;;;;5055877;28;20256;-76
2021/04/25 10:56:30;;;;;;;8.30;6.80;;;30.80;26.90;;;;;;5055843;28;20223;-77
2021/04/25 10:59:33;;;;;;;6.93;6.32;;;30.50;27.40;;;;;;5055898;28;20233;-77
2021/04/25 11:02:03;;;;;;;6.53;5.45;;;30.10;27.00;;;;;;5055564;28;20222;-77
2021/04/25 11:04:59;;;;;;;7.00;5.85;;;30.00;27.40;;;;;;5055380;28;20684;-77
2021/04/25 11:07:51;;;;;;;6.13;5.57;;;28.50;28.80;;;;;;5055596;28;20223;-77
2021/04/25 11:10:23;;;;;;;6.40;5.80;;;26.80;29.40;;;;;;5055375;28;20237;-78
2021/04/25 11:12:51;;;;;;;7.60;5.75;;;25.70;29.50;;;;;;5055609;28;20225;-76
2021/04/25 11:15:53;;;;;;;6.78;5.95;;;24.20;31.80;;;;;;5055443;28;20207;-76
2021/04/25 11:18:40;;;;;;;6.88;5.57;;;23.20;32.60;;;;;;5056184;28;20198;-76
2021/04/25 11:21:46;;;;;;;6.83;6.07;;;22.00;34.00;;;;;;5052080;28;20211;-76
2021/04/25 11:24:34;;;;;;;5.67;5.17;;;21.40;35.40;;;;;;5055382;28;20444;-76
2021/04/25 11:27:02;;;;;;;5.20;4.70;;;20.90;35.20;;;;;;5049896;28;20492;-76
2021/04/25 11:29:55;;;;;;;5.37;4.87;;;20.60;37.50;;;;;;5055047;28;20503;-76
2021/04/25 11:32:30;;;;;;;7.07;5.10;;;20.40;34.20;;;;;;5055192;28;20478;-76
2021/04/25 11:34:59;;;;;;;5.37;4.87;;;20.00;35.80;;;;;;5055145;28;20453;-76
2021/04/25 11:37:26;;;;;;;6.80;5.43;;;19.50;36.20;;;;;;5054718;28;20984;-76
2021/04/25 11:39:54;;;;;;;7.57;6.40;;;19.50;35.70;;;;;;5055047;28;20446;-76
2021/04/25 11:42:27;;;;;;;5.93;5.33;;;19.50;36.20;;;;;;5055064;28;20611;-76
2021/04/25 11:44:55;;;;;;;7.73;6.50;;;19.20;37.10;;;;;;5054982;28;20452;-76
2021/04/25 11:47:22;;;;;;;6.47;5.07;;;19.00;37.90;;;;;;5054845;28;20538;-76
2021/04/25 11:49:52;;;;;;;5.27;4.57;;;18.80;39.50;;;;;;5054473;28;21064;-76
2021/04/25 11:52:20;;;;;;;4.60;4.20;;;18.80;39.20;;;;;;5054879;28;20446;-75
2021/04/25 11:54:48;;;;;;;6.73;4.97;;;18.90;38.60;;;;;;5054561;28;20429;-76
2021/04/25 11:57:16;;;;;;;6.07;4.87;;;18.80;39.80;;;;;;5054589;28;20818;-76
2021/04/25 11:59:54;;;;;;;5.07;4.20;;;18.80;38.60;;;;;;5054829;28;20802;-76
2021/04/25 12:02:21;;;;;;;6.23;4.63;;;18.70;38.30;;;;;;5054731;28;20444;-75
2021/04/25 12:04:49;;;;;;;5.27;4.30;;;18.70;38.30;;;;;;5054655;28;20429;-76
2021/04/25 12:07:34;;;;;;;4.53;4.23;;;18.70;38.00;;;;;;5054123;28;21007;-76
2021/04/25 12:10:01;;;;;;;7.13;4.07;;;18.60;36.70;;;;;;5054571;28;20449;-76
2021/04/25 12:12:27;;;;;;;4.23;3.83;;;18.40;38.30;;;;;;5054486;28;20534;-75
2021/04/25 12:15:03;;;;;;;5.07;3.80;;;18.20;37.60;;;;;;5054168;28;20904;-75
2021/04/25 12:17:30;;;;;;;6.10;4.30;;;18.20;37.90;;;;;;5054126;28;20457;-76
2021/04/25 12:19:57;;;;;;;4.60;4.20;;;18.20;37.90;;;;;;5054787;28;20849;-75
2021/04/25 12:22:23;;;;;;;2.67;2.47;;;18.10;37.20;;;;;;5054311;28;20439;-75
2021/04/25 12:24:54;;;;;;;3.83;3.20;;;18.00;36.70;;;;;;5054234;28;20483;-75
2021/04/25 12:27:21;;;;;;;4.70;3.23;;;17.90;36.70;;;;;;5054289;28;20881;-75
2021/04/25 12:29:48;;;;;;;6.30;3.73;;;17.80;36.50;;;;;;5053809;28;20948;-75
2021/04/25 12:32:19;;;;;;;4.27;2.97;;;17.70;38.30;;;;;;5054084;28;20859;-75
2021/04/25 12:34:55;;;;;;;3.20;2.90;;;17.60;36.90;;;;;;5054041;28;20434;-75
2021/04/25 12:37:35;;;;;;;4.80;2.63;;;17.70;36.40;;;;;;5052721;28;20457;-76
2021/04/25 12:40:01;;;;;;;4.00;3.60;;;17.60;35.10;;;;;;5053971;28;20430;-75
2021/04/25 12:42:27;;;;;;;4.00;3.70;;;17.40;34.60;;;;;;5053864;28;20453;-76
2021/04/25 12:44:54;;;;;;;4.93;3.57;;;17.20;35.20;;;;;;5053860;28;20452;-76
2021/04/25 12:47:29;;;;;;;2.97;2.47;;;16.90;35.80;;;;;;5053623;28;20489;-76
2021/04/25 12:49:55;;;;;;;4.60;2.57;;;16.80;34.80;;;;;;5053278;28;20492;-75
2021/04/25 12:52:34;;;;;;;3.20;2.83;;;16.70;34.00;;;;;;5053539;28;20434;-75
2021/04/25 12:55:01;;;;;;;2.47;2.27;;;16.70;34.90;;;;;;5054405;28;20555;-75
2021/04/25 12:57:28;;;;;;;4.67;2.50;;;16.50;35.00;;;;;;5053349;28;20454;-75